sensor_id;sensor_type;location;lat;lon;timestamp;P1;durP1;ratioP1;P2;durP2;ratioP2
11490;SDS011;5802;52.832;4.758;2022-11-20T00:00:16;2.25;;;1.70;;
11490;SDS011;5802;52.832;4.758;2022-11-20T00:02:43;1.40;;;1.30;;
11490;SDS011;5802;52.832;4.758;2022-11-20T00:05:10;1.73;;;1.38;;
11490;SDS011;5802;52.832;4.758;2022-11-20T00:07:38;2.80;;;1.35;;
11490;SDS011;5802;52.832;4.758;2022-11-20T00:10:05;1.77;;;1.40;;
11490;SDS011;5802;52.832;4.758;2022-11-20T00:12:32;2.17;;;1.42;;
11490;SDS011;5802;52.832;4.758;2022-11-20T00:14:58;1.38;;;1.25;;
11490;SDS011;5802;52.832;4.758;2022-11-20T00:17:25;1.75;;;1.30;;
11490;SDS011;5802;52.832;4.758;2022-11-20T00:19:52;1.50;;;1.40;;
11490;SDS011;5802;52.832;4.758;2022-11-20T00:22:19;1.40;;;1.30;;
11490;SDS011;5802;52.832;4.758;2022-11-20T00:24:47;2.65;;;1.45;;
11490;SDS011;5802;52.832;4.758;2022-11-20T00:27:13;1.40;;;1.30;;
11490;SDS011;5802;52.832;4.758;2022-11-20T00:29:40;1.70;;;1.30;;
11490;SDS011;5802;52.832;4.758;2022-11-20T00:32:06;1.80;;;1.42;;
11490;SDS011;5802;52.832;4.758;2022-11-20T00:34:33;1.77;;;1.40;;
11490;SDS011;5802;52.832;4.758;2022-11-20T00:37:00;1.75;;;1.50;;
11490;SDS011;5802;52.832;4.758;2022-11-20T00:39:26;1.40;;;1.30;;
11490;SDS011;5802;52.832;4.758;2022-11-20T00:41:54;1.90;;;1.50;;
11490;SDS011;5802;52.832;4.758;2022-11-20T00:44:21;1.80;;;1.50;;
11490;SDS011;5802;52.832;4.758;2022-11-20T00:46:48;2.35;;;1.42;;
11490;SDS011;5802;52.832;4.758;2022-11-20T00:49:14;2.45;;;1.27;;
11490;SDS011;5802;52.832;4.758;2022-11-20T00:51:41;1.67;;;1.40;;
11490;SDS011;5802;52.832;4.758;2022-11-20T00:54:08;2.58;;;1.40;;
11490;SDS011;5802;52.832;4.758;2022-11-20T00:56:35;1.83;;;1.50;;
11490;SDS011;5802;52.832;4.758;2022-11-20T00:59:03;1.38;;;1.27;;
11490;SDS011;5802;52.832;4.758;2022-11-20T01:01:29;2.50;;;1.58;;
11490;SDS011;5802;52.832;4.758;2022-11-20T01:03:57;1.85;;;1.55;;
11490;SDS011;5802;52.832;4.758;2022-11-20T01:06:25;1.98;;;1.60;;
11490;SDS011;5802;52.832;4.758;2022-11-20T01:08:55;1.63;;;1.50;;
11490;SDS011;5802;52.832;4.758;2022-11-20T01:11:24;1.55;;;1.45;;
11490;SDS011;5802;52.832;4.758;2022-11-20T01:13:52;2.03;;;1.55;;
11490;SDS011;5802;52.832;4.758;2022-11-20T01:16:21;1.80;;;1.40;;
11490;SDS011;5802;52.832;4.758;2022-11-20T01:18:51;2.10;;;1.50;;
11490;SDS011;5802;52.832;4.758;2022-11-20T01:21:20;1.90;;;1.52;;
11490;SDS011;5802;52.832;4.758;2022-11-20T01:23:49;2.20;;;1.73;;
11490;SDS011;5802;52.832;4.758;2022-11-20T01:26:18;1.55;;;1.45;;
11490;SDS011;5802;52.832;4.758;2022-11-20T01:28:47;1.65;;;1.27;;
11490;SDS011;5802;52.832;4.758;2022-11-20T01:31:15;3.05;;;1.52;;
11490;SDS011;5802;52.832;4.758;2022-11-20T01:33:44;1.63;;;1.52;;
11490;SDS011;5802;52.832;4.758;2022-11-20T01:36:12;3.05;;;1.50;;
11490;SDS011;5802;52.832;4.758;2022-11-20T01:38:40;1.92;;;1.60;;
11490;SDS011;5802;52.832;4.758;2022-11-20T01:41:07;1.63;;;1.50;;
11490;SDS011;5802;52.832;4.758;2022-11-20T01:43:35;2.03;;;1.77;;
11490;SDS011;5802;52.832;4.758;2022-11-20T01:46:02;3.35;;;1.70;;
11490;SDS011;5802;52.832;4.758;2022-11-20T01:48:36;3.35;;;1.73;;
11490;SDS011;5802;52.832;4.758;2022-11-20T01:51:08;2.25;;;1.60;;
11490;SDS011;5802;52.832;4.758;2022-11-20T01:53:42;1.58;;;1.48;;
11490;SDS011;5802;52.832;4.758;2022-11-20T01:56:10;1.80;;;1.50;;
11490;SDS011;5802;52.832;4.758;2022-11-20T01:58:40;1.88;;;1.50;;
11490;SDS011;5802;52.832;4.758;2022-11-20T02:01:11;2.25;;;1.50;;
11490;SDS011;5802;52.832;4.758;2022-11-20T02:03:39;1.67;;;1.58;;
11490;SDS011;5802;52.832;4.758;2022-11-20T02:06:10;3.30;;;1.60;;
11490;SDS011;5802;52.832;4.758;2022-11-20T02:08:41;2.53;;;1.90;;
11490;SDS011;5802;52.832;4.758;2022-11-20T02:11:07;1.95;;;1.60;;
11490;SDS011;5802;52.832;4.758;2022-11-20T02:13:34;2.55;;;1.70;;
11490;SDS011;5802;52.832;4.758;2022-11-20T02:16:10;2.42;;;1.75;;
11490;SDS011;5802;52.832;4.758;2022-11-20T02:18:41;2.30;;;1.70;;
11490;SDS011;5802;52.832;4.758;2022-11-20T02:21:12;1.90;;;1.70;;
11490;SDS011;5802;52.832;4.758;2022-11-20T02:23:54;1.70;;;1.42;;
11490;SDS011;5802;52.832;4.758;2022-11-20T02:26:25;1.90;;;1.60;;
11490;SDS011;5802;52.832;4.758;2022-11-20T02:28:54;1.95;;;1.73;;
11490;SDS011;5802;52.832;4.758;2022-11-20T02:31:21;1.90;;;1.67;;
11490;SDS011;5802;52.832;4.758;2022-11-20T02:33:47;2.42;;;1.83;;
11490;SDS011;5802;52.832;4.758;2022-11-20T02:36:20;2.42;;;1.58;;
11490;SDS011;5802;52.832;4.758;2022-11-20T02:38:47;1.92;;;1.73;;
11490;SDS011;5802;52.832;4.758;2022-11-20T02:41:16;1.70;;;1.60;;
11490;SDS011;5802;52.832;4.758;2022-11-20T02:43:43;1.88;;;1.48;;
11490;SDS011;5802;52.832;4.758;2022-11-20T02:46:10;1.55;;;1.40;;
11490;SDS011;5802;52.832;4.758;2022-11-20T02:48:37;1.80;;;1.52;;
11490;SDS011;5802;52.832;4.758;2022-11-20T02:51:03;2.03;;;1.70;;
11490;SDS011;5802;52.832;4.758;2022-11-20T02:53:30;1.50;;;1.33;;
11490;SDS011;5802;52.832;4.758;2022-11-20T02:55:57;2.05;;;1.80;;
11490;SDS011;5802;52.832;4.758;2022-11-20T02:58:25;2.00;;;1.80;;
11490;SDS011;5802;52.832;4.758;2022-11-20T03:00:52;1.67;;;1.55;;
11490;SDS011;5802;52.832;4.758;2022-11-20T03:03:18;2.22;;;1.63;;
11490;SDS011;5802;52.832;4.758;2022-11-20T03:05:45;1.98;;;1.77;;
11490;SDS011;5802;52.832;4.758;2022-11-20T03:08:11;1.92;;;1.70;;
11490;SDS011;5802;52.832;4.758;2022-11-20T03:10:38;2.08;;;1.88;;
11490;SDS011;5802;52.832;4.758;2022-11-20T03:13:05;2.20;;;1.80;;
11490;SDS011;5802;52.832;4.758;2022-11-20T03:15:33;1.90;;;1.63;;
11490;SDS011;5802;52.832;4.758;2022-11-20T03:18:01;2.00;;;1.77;;
11490;SDS011;5802;52.832;4.758;2022-11-20T03:20:28;2.67;;;1.50;;
11490;SDS011;5802;52.832;4.758;2022-11-20T03:22:55;2.08;;;1.88;;
11490;SDS011;5802;52.832;4.758;2022-11-20T03:25:22;3.75;;;1.90;;
11490;SDS011;5802;52.832;4.758;2022-11-20T03:27:49;2.00;;;1.77;;
11490;SDS011;5802;52.832;4.758;2022-11-20T03:30:15;1.98;;;1.80;;
11490;SDS011;5802;52.832;4.758;2022-11-20T03:32:43;3.55;;;1.92;;
11490;SDS011;5802;52.832;4.758;2022-11-20T03:35:10;2.10;;;1.60;;
11490;SDS011;5802;52.832;4.758;2022-11-20T03:37:37;2.08;;;1.83;;
11490;SDS011;5802;52.832;4.758;2022-11-20T03:40:04;3.10;;;2.03;;
11490;SDS011;5802;52.832;4.758;2022-11-20T03:42:32;2.05;;;1.70;;
11490;SDS011;5802;52.832;4.758;2022-11-20T03:45:11;2.22;;;1.80;;
11490;SDS011;5802;52.832;4.758;2022-11-20T03:47:38;2.00;;;1.70;;
11490;SDS011;5802;52.832;4.758;2022-11-20T03:50:06;3.13;;;1.70;;
11490;SDS011;5802;52.832;4.758;2022-11-20T03:52:34;2.08;;;1.55;;
11490;SDS011;5802;52.832;4.758;2022-11-20T03:55:00;2.80;;;1.73;;
11490;SDS011;5802;52.832;4.758;2022-11-20T03:57:27;2.13;;;1.73;;
11490;SDS011;5802;52.832;4.758;2022-11-20T03:59:54;2.17;;;1.65;;
11490;SDS011;5802;52.832;4.758;2022-11-20T04:02:21;2.05;;;1.73;;
11490;SDS011;5802;52.832;4.758;2022-11-20T04:04:48;2.05;;;1.77;;
11490;SDS011;5802;52.832;4.758;2022-11-20T04:07:16;1.98;;;1.75;;
11490;SDS011;5802;52.832;4.758;2022-11-20T04:09:42;2.55;;;1.90;;
11490;SDS011;5802;52.832;4.758;2022-11-20T04:12:09;2.17;;;1.70;;
11490;SDS011;5802;52.832;4.758;2022-11-20T04:14:36;1.98;;;1.67;;
11490;SDS011;5802;52.832;4.758;2022-11-20T04:17:03;2.15;;;1.90;;
11490;SDS011;5802;52.832;4.758;2022-11-20T04:19:30;2.00;;;1.80;;
11490;SDS011;5802;52.832;4.758;2022-11-20T04:21:56;2.15;;;1.70;;
11490;SDS011;5802;52.832;4.758;2022-11-20T04:24:24;2.35;;;1.90;;
11490;SDS011;5802;52.832;4.758;2022-11-20T04:26:52;2.17;;;1.95;;
11490;SDS011;5802;52.832;4.758;2022-11-20T04:29:19;1.92;;;1.70;;
11490;SDS011;5802;52.832;4.758;2022-11-20T04:31:45;2.08;;;1.63;;
11490;SDS011;5802;52.832;4.758;2022-11-20T04:34:14;1.83;;;1.60;;
11490;SDS011;5802;52.832;4.758;2022-11-20T04:36:41;2.05;;;1.73;;
11490;SDS011;5802;52.832;4.758;2022-11-20T04:39:11;2.40;;;1.92;;
11490;SDS011;5802;52.832;4.758;2022-11-20T04:41:41;1.67;;;1.48;;
11490;SDS011;5802;52.832;4.758;2022-11-20T04:44:09;2.42;;;1.75;;
11490;SDS011;5802;52.832;4.758;2022-11-20T04:46:37;2.63;;;1.90;;
11490;SDS011;5802;52.832;4.758;2022-11-20T04:49:04;3.08;;;2.00;;
11490;SDS011;5802;52.832;4.758;2022-11-20T04:51:31;2.03;;;1.50;;
11490;SDS011;5802;52.832;4.758;2022-11-20T04:53:58;2.13;;;1.80;;
11490;SDS011;5802;52.832;4.758;2022-11-20T04:56:25;1.90;;;1.67;;
11490;SDS011;5802;52.832;4.758;2022-11-20T04:58:53;2.15;;;1.88;;
11490;SDS011;5802;52.832;4.758;2022-11-20T05:01:21;1.77;;;1.67;;
11490;SDS011;5802;52.832;4.758;2022-11-20T05:03:48;2.83;;;1.85;;
11490;SDS011;5802;52.832;4.758;2022-11-20T05:06:17;2.95;;;1.88;;
11490;SDS011;5802;52.832;4.758;2022-11-20T05:08:44;2.00;;;1.80;;
11490;SDS011;5802;52.832;4.758;2022-11-20T05:11:13;2.60;;;1.90;;
11490;SDS011;5802;52.832;4.758;2022-11-20T05:13:41;2.30;;;1.60;;
11490;SDS011;5802;52.832;4.758;2022-11-20T05:16:10;3.15;;;1.60;;
11490;SDS011;5802;52.832;4.758;2022-11-20T05:18:38;2.25;;;1.70;;
11490;SDS011;5802;52.832;4.758;2022-11-20T05:21:05;2.63;;;1.83;;
11490;SDS011;5802;52.832;4.758;2022-11-20T05:23:33;1.85;;;1.63;;
11490;SDS011;5802;52.832;4.758;2022-11-20T05:26:00;2.53;;;1.77;;
11490;SDS011;5802;52.832;4.758;2022-11-20T05:28:28;1.92;;;1.52;;
11490;SDS011;5802;52.832;4.758;2022-11-20T05:30:55;1.83;;;1.50;;
11490;SDS011;5802;52.832;4.758;2022-11-20T05:33:23;2.33;;;1.80;;
11490;SDS011;5802;52.832;4.758;2022-11-20T05:35:50;1.92;;;1.60;;
11490;SDS011;5802;52.832;4.758;2022-11-20T05:38:17;1.83;;;1.70;;
11490;SDS011;5802;52.832;4.758;2022-11-20T05:40:43;1.95;;;1.80;;
11490;SDS011;5802;52.832;4.758;2022-11-20T05:43:10;2.10;;;1.85;;
11490;SDS011;5802;52.832;4.758;2022-11-20T05:45:37;1.58;;;1.48;;
11490;SDS011;5802;52.832;4.758;2022-11-20T05:48:03;1.77;;;1.63;;
11490;SDS011;5802;52.832;4.758;2022-11-20T05:50:31;2.00;;;1.80;;
11490;SDS011;5802;52.832;4.758;2022-11-20T05:52:58;1.90;;;1.60;;
11490;SDS011;5802;52.832;4.758;2022-11-20T05:55:25;2.47;;;1.90;;
11490;SDS011;5802;52.832;4.758;2022-11-20T05:57:52;1.90;;;1.70;;
11490;SDS011;5802;52.832;4.758;2022-11-20T06:00:20;2.75;;;2.17;;
11490;SDS011;5802;52.832;4.758;2022-11-20T06:02:46;2.05;;;1.60;;
11490;SDS011;5802;52.832;4.758;2022-11-20T06:05:13;2.00;;;1.80;;
11490;SDS011;5802;52.832;4.758;2022-11-20T06:07:41;2.35;;;1.50;;
11490;SDS011;5802;52.832;4.758;2022-11-20T06:10:08;2.28;;;1.88;;
11490;SDS011;5802;52.832;4.758;2022-11-20T06:12:38;3.10;;;1.45;;
11490;SDS011;5802;52.832;4.758;2022-11-20T06:15:05;1.80;;;1.48;;
11490;SDS011;5802;52.832;4.758;2022-11-20T06:17:32;1.85;;;1.52;;
11490;SDS011;5802;52.832;4.758;2022-11-20T06:19:59;2.28;;;1.65;;
11490;SDS011;5802;52.832;4.758;2022-11-20T06:22:26;1.70;;;1.52;;
11490;SDS011;5802;52.832;4.758;2022-11-20T06:24:54;2.25;;;1.77;;
11490;SDS011;5802;52.832;4.758;2022-11-20T06:27:20;2.85;;;1.60;;
11490;SDS011;5802;52.832;4.758;2022-11-20T06:29:47;2.00;;;1.80;;
11490;SDS011;5802;52.832;4.758;2022-11-20T06:32:14;3.05;;;1.60;;
11490;SDS011;5802;52.832;4.758;2022-11-20T06:34:40;1.60;;;1.50;;
11490;SDS011;5802;52.832;4.758;2022-11-20T06:37:08;1.63;;;1.52;;
11490;SDS011;5802;52.832;4.758;2022-11-20T06:39:35;2.40;;;1.60;;
11490;SDS011;5802;52.832;4.758;2022-11-20T06:42:03;1.83;;;1.70;;
11490;SDS011;5802;52.832;4.758;2022-11-20T06:44:30;2.63;;;1.80;;
11490;SDS011;5802;52.832;4.758;2022-11-20T06:46:56;2.50;;;1.95;;
11490;SDS011;5802;52.832;4.758;2022-11-20T06:49:23;3.08;;;1.80;;
11490;SDS011;5802;52.832;4.758;2022-11-20T06:51:50;2.17;;;1.75;;
11490;SDS011;5802;52.832;4.758;2022-11-20T06:54:17;2.38;;;1.70;;
11490;SDS011;5802;52.832;4.758;2022-11-20T06:56:45;4.63;;;1.65;;
11490;SDS011;5802;52.832;4.758;2022-11-20T06:59:14;2.63;;;1.80;;
11490;SDS011;5802;52.832;4.758;2022-11-20T07:01:40;1.77;;;1.63;;
11490;SDS011;5802;52.832;4.758;2022-11-20T07:04:07;1.77;;;1.63;;
11490;SDS011;5802;52.832;4.758;2022-11-20T07:06:34;2.10;;;1.75;;
11490;SDS011;5802;52.832;4.758;2022-11-20T07:09:02;2.95;;;1.90;;
11490;SDS011;5802;52.832;4.758;2022-11-20T07:11:29;2.17;;;1.67;;
11490;SDS011;5802;52.832;4.758;2022-11-20T07:13:56;1.90;;;1.70;;
11490;SDS011;5802;52.832;4.758;2022-11-20T07:16:24;2.15;;;1.80;;
11490;SDS011;5802;52.832;4.758;2022-11-20T07:18:51;4.40;;;1.75;;
11490;SDS011;5802;52.832;4.758;2022-11-20T07:21:18;2.35;;;1.60;;
11490;SDS011;5802;52.832;4.758;2022-11-20T07:23:44;1.70;;;1.60;;
11490;SDS011;5802;52.832;4.758;2022-11-20T07:26:11;2.05;;;1.85;;
11490;SDS011;5802;52.832;4.758;2022-11-20T07:28:38;2.30;;;1.80;;
11490;SDS011;5802;52.832;4.758;2022-11-20T07:31:05;1.75;;;1.52;;
11490;SDS011;5802;52.832;4.758;2022-11-20T07:33:33;1.98;;;1.60;;
11490;SDS011;5802;52.832;4.758;2022-11-20T07:36:00;2.20;;;1.70;;
11490;SDS011;5802;52.832;4.758;2022-11-20T07:38:27;1.73;;;1.63;;
11490;SDS011;5802;52.832;4.758;2022-11-20T07:40:55;2.00;;;1.60;;
11490;SDS011;5802;52.832;4.758;2022-11-20T07:43:22;1.73;;;1.60;;
11490;SDS011;5802;52.832;4.758;2022-11-20T07:45:50;2.17;;;1.70;;
11490;SDS011;5802;52.832;4.758;2022-11-20T07:48:17;2.25;;;1.73;;
11490;SDS011;5802;52.832;4.758;2022-11-20T07:50:45;2.80;;;1.92;;
11490;SDS011;5802;52.832;4.758;2022-11-20T07:53:11;2.10;;;1.60;;
11490;SDS011;5802;52.832;4.758;2022-11-20T07:55:38;3.40;;;1.80;;
11490;SDS011;5802;52.832;4.758;2022-11-20T07:58:06;2.60;;;1.88;;
11490;SDS011;5802;52.832;4.758;2022-11-20T08:00:33;2.17;;;1.70;;
11490;SDS011;5802;52.832;4.758;2022-11-20T08:03:02;2.25;;;1.67;;
11490;SDS011;5802;52.832;4.758;2022-11-20T08:05:29;2.35;;;1.85;;
11490;SDS011;5802;52.832;4.758;2022-11-20T08:07:57;2.20;;;1.80;;
11490;SDS011;5802;52.832;4.758;2022-11-20T08:10:24;2.15;;;1.90;;
11490;SDS011;5802;52.832;4.758;2022-11-20T08:12:51;1.80;;;1.58;;
11490;SDS011;5802;52.832;4.758;2022-11-20T08:15:36;3.35;;;1.80;;
11490;SDS011;5802;52.832;4.758;2022-11-20T08:18:04;1.98;;;1.70;;
11490;SDS011;5802;52.832;4.758;2022-11-20T08:20:33;6.75;;;1.90;;
11490;SDS011;5802;52.832;4.758;2022-11-20T08:23:02;3.03;;;1.90;;
11490;SDS011;5802;52.832;4.758;2022-11-20T08:25:32;5.07;;;2.17;;
11490;SDS011;5802;52.832;4.758;2022-11-20T08:28:00;2.65;;;1.67;;
11490;SDS011;5802;52.832;4.758;2022-11-20T08:30:28;1.80;;;1.58;;
11490;SDS011;5802;52.832;4.758;2022-11-20T08:32:59;2.92;;;2.00;;
11490;SDS011;5802;52.832;4.758;2022-11-20T08:35:27;2.92;;;2.20;;
11490;SDS011;5802;52.832;4.758;2022-11-20T08:37:54;2.92;;;2.00;;
11490;SDS011;5802;52.832;4.758;2022-11-20T08:40:22;2.65;;;2.00;;
11490;SDS011;5802;52.832;4.758;2022-11-20T08:42:49;4.05;;;2.42;;
11490;SDS011;5802;52.832;4.758;2022-11-20T08:45:17;4.75;;;2.25;;
11490;SDS011;5802;52.832;4.758;2022-11-20T08:47:44;4.22;;;2.45;;
11490;SDS011;5802;52.832;4.758;2022-11-20T08:50:13;5.90;;;2.63;;
11490;SDS011;5802;52.832;4.758;2022-11-20T08:52:41;5.65;;;2.50;;
11490;SDS011;5802;52.832;4.758;2022-11-20T08:55:08;3.97;;;2.47;;
11490;SDS011;5802;52.832;4.758;2022-11-20T08:57:37;4.13;;;2.67;;
11490;SDS011;5802;52.832;4.758;2022-11-20T09:00:05;5.15;;;2.55;;
11490;SDS011;5802;52.832;4.758;2022-11-20T09:02:34;4.55;;;2.63;;
11490;SDS011;5802;52.832;4.758;2022-11-20T09:05:00;7.93;;;2.70;;
11490;SDS011;5802;52.832;4.758;2022-11-20T09:07:28;7.35;;;2.72;;
11490;SDS011;5802;52.832;4.758;2022-11-20T09:09:55;4.57;;;2.70;;
11490;SDS011;5802;52.832;4.758;2022-11-20T09:12:21;5.65;;;2.83;;
11490;SDS011;5802;52.832;4.758;2022-11-20T09:14:49;4.20;;;2.83;;
11490;SDS011;5802;52.832;4.758;2022-11-20T09:17:16;10.88;;;3.53;;
11490;SDS011;5802;52.832;4.758;2022-11-20T09:19:53;11.27;;;3.30;;
11490;SDS011;5802;52.832;4.758;2022-11-20T09:22:25;10.00;;;3.40;;
11490;SDS011;5802;52.832;4.758;2022-11-20T09:24:52;9.18;;;3.13;;
11490;SDS011;5802;52.832;4.758;2022-11-20T09:27:19;10.90;;;3.55;;
11490;SDS011;5802;52.832;4.758;2022-11-20T09:29:47;9.80;;;3.20;;
11490;SDS011;5802;52.832;4.758;2022-11-20T09:32:15;11.65;;;3.35;;
11490;SDS011;5802;52.832;4.758;2022-11-20T09:34:41;4.30;;;2.85;;
11490;SDS011;5802;52.832;4.758;2022-11-20T09:37:08;6.45;;;3.17;;
11490;SDS011;5802;52.832;4.758;2022-11-20T09:39:35;7.78;;;3.00;;
11490;SDS011;5802;52.832;4.758;2022-11-20T09:44:57;7.30;;;2.80;;
11490;SDS011;5802;52.832;4.758;2022-11-20T09:47:38;7.38;;;3.17;;
11490;SDS011;5802;52.832;4.758;2022-11-20T09:50:23;5.28;;;2.70;;
11490;SDS011;5802;52.832;4.758;2022-11-20T09:53:00;5.07;;;2.70;;
11490;SDS011;5802;52.832;4.758;2022-11-20T09:55:35;3.10;;;2.60;;
11490;SDS011;5802;52.832;4.758;2022-11-20T09:58:04;6.10;;;2.60;;
11490;SDS011;5802;52.832;4.758;2022-11-20T10:00:33;6.20;;;2.70;;
11490;SDS011;5802;52.832;4.758;2022-11-20T10:03:03;6.40;;;2.60;;
11490;SDS011;5802;52.832;4.758;2022-11-20T10:05:39;6.10;;;2.90;;
11490;SDS011;5802;52.832;4.758;2022-11-20T10:08:10;7.05;;;2.50;;
11490;SDS011;5802;52.832;4.758;2022-11-20T10:10:44;4.50;;;2.47;;
11490;SDS011;5802;52.832;4.758;2022-11-20T10:13:19;3.90;;;2.42;;
11490;SDS011;5802;52.832;4.758;2022-11-20T10:15:55;3.15;;;2.30;;
11490;SDS011;5802;52.832;4.758;2022-11-20T10:18:41;3.47;;;2.67;;
11490;SDS011;5802;52.832;4.758;2022-11-20T10:21:19;4.10;;;2.78;;
11490;SDS011;5802;52.832;4.758;2022-11-20T10:23:56;3.70;;;2.50;;
11490;SDS011;5802;52.832;4.758;2022-11-20T10:26:35;4.63;;;2.50;;
11490;SDS011;5802;52.832;4.758;2022-11-20T10:29:11;4.00;;;2.53;;
11490;SDS011;5802;52.832;4.758;2022-11-20T10:31:40;3.63;;;2.45;;
11490;SDS011;5802;52.832;4.758;2022-11-20T10:34:14;5.35;;;2.45;;
11490;SDS011;5802;52.832;4.758;2022-11-20T10:36:46;3.60;;;2.25;;
11490;SDS011;5802;52.832;4.758;2022-11-20T10:39:22;6.70;;;2.72;;
11490;SDS011;5802;52.832;4.758;2022-11-20T10:41:55;2.75;;;2.20;;
11490;SDS011;5802;52.832;4.758;2022-11-20T10:44:26;5.60;;;2.40;;
11490;SDS011;5802;52.832;4.758;2022-11-20T10:47:12;5.45;;;2.60;;
11490;SDS011;5802;52.832;4.758;2022-11-20T10:49:42;3.75;;;2.40;;
11490;SDS011;5802;52.832;4.758;2022-11-20T10:52:11;5.20;;;2.60;;
11490;SDS011;5802;52.832;4.758;2022-11-20T10:54:46;9.43;;;2.72;;
11490;SDS011;5802;52.832;4.758;2022-11-20T10:57:24;5.07;;;2.63;;
11490;SDS011;5802;52.832;4.758;2022-11-20T11:00:02;5.90;;;2.72;;
11490;SDS011;5802;52.832;4.758;2022-11-20T11:02:32;7.00;;;2.50;;
11490;SDS011;5802;52.832;4.758;2022-11-20T11:05:10;4.80;;;2.75;;
11490;SDS011;5802;52.832;4.758;2022-11-20T11:07:43;3.85;;;2.65;;
11490;SDS011;5802;52.832;4.758;2022-11-20T11:10:16;4.45;;;2.42;;
11490;SDS011;5802;52.832;4.758;2022-11-20T11:12:45;6.07;;;2.90;;
11490;SDS011;5802;52.832;4.758;2022-11-20T11:15:14;7.63;;;2.67;;
11490;SDS011;5802;52.832;4.758;2022-11-20T11:17:50;6.57;;;3.00;;
11490;SDS011;5802;52.832;4.758;2022-11-20T11:20:19;4.18;;;2.60;;
11490;SDS011;5802;52.832;4.758;2022-11-20T11:22:48;5.15;;;2.33;;
11490;SDS011;5802;52.832;4.758;2022-11-20T11:25:19;6.63;;;2.45;;
11490;SDS011;5802;52.832;4.758;2022-11-20T11:27:49;6.50;;;2.45;;
11490;SDS011;5802;52.832;4.758;2022-11-20T11:30:17;6.10;;;2.60;;
11490;SDS011;5802;52.832;4.758;2022-11-20T11:32:46;3.70;;;2.50;;
11490;SDS011;5802;52.832;4.758;2022-11-20T11:35:23;3.92;;;2.60;;
11490;SDS011;5802;52.832;4.758;2022-11-20T11:37:52;3.28;;;2.40;;
11490;SDS011;5802;52.832;4.758;2022-11-20T11:40:27;3.30;;;2.45;;
11490;SDS011;5802;52.832;4.758;2022-11-20T11:42:57;4.72;;;2.40;;
11490;SDS011;5802;52.832;4.758;2022-11-20T11:45:26;2.75;;;2.47;;
11490;SDS011;5802;52.832;4.758;2022-11-20T11:47:53;3.08;;;2.40;;
11490;SDS011;5802;52.832;4.758;2022-11-20T11:50:24;3.83;;;2.47;;
11490;SDS011;5802;52.832;4.758;2022-11-20T11:52:56;3.08;;;2.35;;
11490;SDS011;5802;52.832;4.758;2022-11-20T11:55:30;3.33;;;2.45;;
11490;SDS011;5802;52.832;4.758;2022-11-20T11:58:10;3.47;;;2.63;;
11490;SDS011;5802;52.832;4.758;2022-11-20T12:00:45;3.15;;;2.58;;
11490;SDS011;5802;52.832;4.758;2022-11-20T12:03:18;5.80;;;2.53;;
11490;SDS011;5802;52.832;4.758;2022-11-20T12:05:50;7.25;;;2.33;;
11490;SDS011;5802;52.832;4.758;2022-11-20T12:08:25;3.30;;;2.67;;
11490;SDS011;5802;52.832;4.758;2022-11-20T12:10:56;3.53;;;2.60;;
11490;SDS011;5802;52.832;4.758;2022-11-20T12:13:32;3.08;;;2.50;;
11490;SDS011;5802;52.832;4.758;2022-11-20T12:16:07;9.35;;;2.70;;
11490;SDS011;5802;52.832;4.758;2022-11-20T12:18:38;3.92;;;2.50;;
11490;SDS011;5802;52.832;4.758;2022-11-20T12:21:10;3.45;;;2.50;;
11490;SDS011;5802;52.832;4.758;2022-11-20T12:23:48;3.08;;;2.70;;
11490;SDS011;5802;52.832;4.758;2022-11-20T12:26:28;2.80;;;2.53;;
11490;SDS011;5802;52.832;4.758;2022-11-20T12:29:06;3.08;;;2.53;;
11490;SDS011;5802;52.832;4.758;2022-11-20T12:31:47;3.78;;;2.60;;
11490;SDS011;5802;52.832;4.758;2022-11-20T12:34:36;7.68;;;2.85;;
11490;SDS011;5802;52.832;4.758;2022-11-20T12:37:21;5.50;;;2.53;;
11490;SDS011;5802;52.832;4.758;2022-11-20T12:39:56;3.42;;;2.63;;
11490;SDS011;5802;52.832;4.758;2022-11-20T12:42:31;4.65;;;2.42;;
11490;SDS011;5802;52.832;4.758;2022-11-20T12:48:38;3.80;;;2.65;;
11490;SDS011;5802;52.832;4.758;2022-11-20T12:51:20;4.28;;;2.53;;
11490;SDS011;5802;52.832;4.758;2022-11-20T12:54:11;5.88;;;2.90;;
11490;SDS011;5802;52.832;4.758;2022-11-20T12:56:56;7.03;;;2.65;;
11490;SDS011;5802;52.832;4.758;2022-11-20T12:59:33;5.22;;;2.75;;
11490;SDS011;5802;52.832;4.758;2022-11-20T13:02:14;4.47;;;2.60;;
11490;SDS011;5802;52.832;4.758;2022-11-20T13:04:57;3.28;;;2.47;;
11490;SDS011;5802;52.832;4.758;2022-11-20T13:07:37;3.42;;;2.28;;
11490;SDS011;5802;52.832;4.758;2022-11-20T13:10:10;4.22;;;2.50;;
11490;SDS011;5802;52.832;4.758;2022-11-20T13:12:44;5.50;;;2.58;;
11490;SDS011;5802;52.832;4.758;2022-11-20T13:15:17;3.00;;;2.65;;
11490;SDS011;5802;52.832;4.758;2022-11-20T13:17:57;4.28;;;2.40;;
11490;SDS011;5802;52.832;4.758;2022-11-20T13:20:26;5.53;;;2.47;;
11490;SDS011;5802;52.832;4.758;2022-11-20T13:22:54;3.90;;;2.45;;
11490;SDS011;5802;52.832;4.758;2022-11-20T13:25:25;2.88;;;2.47;;
11490;SDS011;5802;52.832;4.758;2022-11-20T13:27:54;3.22;;;2.40;;
11490;SDS011;5802;52.832;4.758;2022-11-20T13:30:22;3.83;;;2.25;;
11490;SDS011;5802;52.832;4.758;2022-11-20T13:32:53;4.10;;;2.20;;
11490;SDS011;5802;52.832;4.758;2022-11-20T13:35:29;2.72;;;2.20;;
11490;SDS011;5802;52.832;4.758;2022-11-20T13:38:04;3.00;;;2.22;;
11490;SDS011;5802;52.832;4.758;2022-11-20T13:40:35;2.75;;;2.45;;
11490;SDS011;5802;52.832;4.758;2022-11-20T13:43:08;2.92;;;2.35;;
11490;SDS011;5802;52.832;4.758;2022-11-20T13:45:41;2.35;;;2.03;;
11490;SDS011;5802;52.832;4.758;2022-11-20T13:48:19;4.15;;;2.13;;
11490;SDS011;5802;52.832;4.758;2022-11-20T13:50:50;3.72;;;1.80;;
11490;SDS011;5802;52.832;4.758;2022-11-20T13:53:31;2.75;;;2.08;;
11490;SDS011;5802;52.832;4.758;2022-11-20T13:56:10;3.10;;;2.30;;
11490;SDS011;5802;52.832;4.758;2022-11-20T13:58:49;2.45;;;2.10;;
11490;SDS011;5802;52.832;4.758;2022-11-20T14:01:26;2.80;;;2.20;;
11490;SDS011;5802;52.832;4.758;2022-11-20T14:03:57;2.60;;;2.05;;
11490;SDS011;5802;52.832;4.758;2022-11-20T14:06:25;2.85;;;2.30;;
11490;SDS011;5802;52.832;4.758;2022-11-20T14:08:54;2.65;;;2.20;;
11490;SDS011;5802;52.832;4.758;2022-11-20T14:11:23;4.13;;;2.10;;
11490;SDS011;5802;52.832;4.758;2022-11-20T14:13:52;2.55;;;2.35;;
11490;SDS011;5802;52.832;4.758;2022-11-20T14:16:26;3.50;;;2.13;;
11490;SDS011;5802;52.832;4.758;2022-11-20T14:18:54;3.35;;;2.03;;
11490;SDS011;5802;52.832;4.758;2022-11-20T14:21:22;5.60;;;2.20;;
11490;SDS011;5802;52.832;4.758;2022-11-20T14:23:52;3.55;;;2.60;;
11490;SDS011;5802;52.832;4.758;2022-11-20T14:26:19;3.35;;;2.55;;
11490;SDS011;5802;52.832;4.758;2022-11-20T14:28:48;5.90;;;2.33;;
11490;SDS011;5802;52.832;4.758;2022-11-20T14:31:18;3.25;;;2.55;;
11490;SDS011;5802;52.832;4.758;2022-11-20T14:33:50;4.65;;;2.13;;
11490;SDS011;5802;52.832;4.758;2022-11-20T14:36:18;5.00;;;2.20;;
11490;SDS011;5802;52.832;4.758;2022-11-20T14:38:48;4.53;;;2.40;;
11490;SDS011;5802;52.832;4.758;2022-11-20T14:41:17;3.65;;;2.30;;
11490;SDS011;5802;52.832;4.758;2022-11-20T14:43:45;4.32;;;2.45;;
11490;SDS011;5802;52.832;4.758;2022-11-20T14:46:14;2.88;;;2.40;;
11490;SDS011;5802;52.832;4.758;2022-11-20T14:48:43;5.70;;;2.33;;
11490;SDS011;5802;52.832;4.758;2022-11-20T14:51:11;3.10;;;2.35;;
11490;SDS011;5802;52.832;4.758;2022-11-20T14:53:48;3.20;;;2.72;;
11490;SDS011;5802;52.832;4.758;2022-11-20T14:56:20;6.18;;;2.45;;
11490;SDS011;5802;52.832;4.758;2022-11-20T14:58:55;6.72;;;2.42;;
11490;SDS011;5802;52.832;4.758;2022-11-20T15:01:26;3.65;;;2.50;;
11490;SDS011;5802;52.832;4.758;2022-11-20T15:03:58;2.95;;;2.30;;
11490;SDS011;5802;52.832;4.758;2022-11-20T15:06:27;3.05;;;2.53;;
11490;SDS011;5802;52.832;4.758;2022-11-20T15:08:54;5.03;;;2.65;;
11490;SDS011;5802;52.832;4.758;2022-11-20T15:11:25;8.98;;;2.50;;
11490;SDS011;5802;52.832;4.758;2022-11-20T15:13:56;4.72;;;2.38;;
11490;SDS011;5802;52.832;4.758;2022-11-20T15:16:24;3.80;;;2.53;;
11490;SDS011;5802;52.832;4.758;2022-11-20T15:18:54;3.40;;;2.30;;
11490;SDS011;5802;52.832;4.758;2022-11-20T15:21:21;5.05;;;2.35;;